createdAt,value
2024-02-02T05:00:33.128Z,100.00
2024-02-02T05:03:36.526Z,100.00
2024-02-02T05:06:39.472Z,100.00
2024-02-02T05:09:42.476Z,100.00
2024-02-02T05:12:45.882Z,100.00
2024-02-02T05:15:49.095Z,100.00
2024-02-02T05:18:52.381Z,100.00
2024-02-02T05:21:55.439Z,100.00
2024-02-02T05:24:58.188Z,100.00
2024-02-02T05:28:01.845Z,100.00
2024-02-02T05:31:04.731Z,100.00
2024-02-02T05:34:08.004Z,100.00
2024-02-02T05:37:10.985Z,100.00
2024-02-02T05:40:14.131Z,100.00
2024-02-02T05:43:16.814Z,100.00
2024-02-02T05:46:20.754Z,100.00
2024-02-02T05:49:24.180Z,100.00
2024-02-02T05:52:27.399Z,100.00
2024-02-02T05:55:30.125Z,100.00
2024-02-02T05:58:33.106Z,100.00
2024-02-02T06:01:35.813Z,100.00
2024-02-02T06:04:38.982Z,100.00
2024-02-02T06:07:41.905Z,100.00
2024-02-02T06:10:47.195Z,100.00
2024-02-02T06:13:57.103Z,100.00
2024-02-02T06:17:00.617Z,100.00
2024-02-02T06:20:04.358Z,100.00
2024-02-02T06:23:10.587Z,100.00
2024-02-02T06:26:13.448Z,100.00
2024-02-02T06:29:16.569Z,100.00
2024-02-02T06:32:22.253Z,100.00
2024-02-02T06:35:25.313Z,100.00
2024-02-02T06:38:28.204Z,100.00
2024-02-02T06:41:32.586Z,100.00
2024-02-02T06:44:37.014Z,100.00
2024-02-02T06:47:41.300Z,100.00
2024-02-02T06:50:45.751Z,100.00
2024-02-02T06:53:54.591Z,100.00
2024-02-02T06:56:57.388Z,100.00
2024-02-02T07:00:01.618Z,100.00
2024-02-02T07:03:07.399Z,100.00
2024-02-02T07:06:10.605Z,100.00
2024-02-02T07:09:19.505Z,100.00
2024-02-02T07:12:58.235Z,100.00
2024-02-02T07:16:01.505Z,100.00
2024-02-02T07:19:05.227Z,100.00
2024-02-02T07:22:39.221Z,100.00
2024-02-02T07:25:43.966Z,100.00
2024-02-02T07:28:46.748Z,100.00
2024-02-02T07:31:49.710Z,100.00
2024-02-02T07:34:56.172Z,100.00
2024-02-02T07:38:07.714Z,100.00
2024-02-02T07:41:13.610Z,100.00
2024-02-02T07:44:16.507Z,100.00
2024-02-02T07:47:19.293Z,100.00
2024-02-02T07:50:22.251Z,100.00
2024-02-02T07:53:25.369Z,100.00
2024-02-02T07:56:28.362Z,100.00
2024-02-02T07:59:31.095Z,100.00
2024-02-02T08:02:34.130Z,100.00
2024-02-02T08:05:38.565Z,100.00
2024-02-02T08:08:41.401Z,100.00
2024-02-02T08:11:44.456Z,100.00
2024-02-02T08:14:47.571Z,100.00
2024-02-02T08:17:52.146Z,100.00
2024-02-02T08:20:55.021Z,100.00
2024-02-02T08:23:59.561Z,100.00
2024-02-02T08:27:02.562Z,100.00
2024-02-02T08:30:09.692Z,100.00
2024-02-02T08:33:14.712Z,100.00
2024-02-02T08:36:19.587Z,100.00
2024-02-02T08:39:22.964Z,100.00
2024-02-02T08:42:26.422Z,100.00
2024-02-02T08:45:44.647Z,100.00
2024-02-02T08:48:50.166Z,100.00
2024-02-02T08:51:53.340Z,100.00
2024-02-02T08:54:56.437Z,100.00
2024-02-02T08:58:22.146Z,100.00
2024-02-02T09:01:43.860Z,100.00
2024-02-02T09:05:11.272Z,100.00
2024-02-02T09:08:17.156Z,100.00
2024-02-02T09:11:22.606Z,100.00
2024-02-02T09:14:27.619Z,100.00
2024-02-02T09:17:31.604Z,100.00
2024-02-02T09:20:34.562Z,100.00
2024-02-02T09:23:37.894Z,100.00
2024-02-02T09:26:41.418Z,100.00
2024-02-02T09:29:46.394Z,100.00
2024-02-02T09:32:50.100Z,100.00
2024-02-02T09:35:56.113Z,100.00
2024-02-02T09:39:19.118Z,100.00
2024-02-02T09:42:56.311Z,100.00
2024-02-02T09:45:59.328Z,100.00
2024-02-02T09:49:37.594Z,100.00
2024-02-02T09:53:02.459Z,100.00
2024-02-02T09:56:33.933Z,100.00
2024-02-02T10:00:02.768Z,100.00
2024-02-02T10:03:21.942Z,100.00
2024-02-02T10:06:46.437Z,100.00
2024-02-02T10:10:11.838Z,100.00
2024-02-02T10:13:33.663Z,100.00
2024-02-02T10:16:55.711Z,100.00
2024-02-02T10:20:19.018Z,100.00
2024-02-02T10:23:42.659Z,100.00
2024-02-02T10:27:25.975Z,100.00
2024-02-02T10:30:39.234Z,100.00
2024-02-02T10:33:48.193Z,100.00
2024-02-02T10:37:00.109Z,100.00
2024-02-02T10:40:07.899Z,100.00
2024-02-02T10:43:34.591Z,100.00
2024-02-02T10:46:51.855Z,100.00
2024-02-02T10:50:19.105Z,100.00
2024-02-02T10:53:48.773Z,100.00
2024-02-02T10:57:01.189Z,100.00
2024-02-02T11:00:25.669Z,100.00
2024-02-02T11:03:35.966Z,100.00
2024-02-02T11:06:56.671Z,100.00
2024-02-02T11:10:12.861Z,100.00
2024-02-02T11:13:31.118Z,100.00
2024-02-02T11:16:52.887Z,100.00
2024-02-02T11:20:34.222Z,100.00
2024-02-02T11:23:42.374Z,100.00
2024-02-02T11:26:55.918Z,100.00
2024-02-02T11:30:08.646Z,100.00
2024-02-02T11:33:27.053Z,100.00
2024-02-02T11:37:08.374Z,100.00
2024-02-02T11:40:11.985Z,99.50
2024-02-02T11:43:18.264Z,97.29
2024-02-02T11:46:26.599Z,97.92
2024-02-02T11:49:37.034Z,92.28
2024-02-02T11:52:46.179Z,86.16
2024-02-02T11:55:54.906Z,82.73
2024-02-02T11:59:20.015Z,80.29
2024-02-02T12:03:16.451Z,78.31
2024-02-02T12:06:21.101Z,71.65
2024-02-02T12:09:33.117Z,70.49
2024-02-02T12:12:46.696Z,66.25
2024-02-02T12:15:53.975Z,63.35
2024-02-02T12:18:57.278Z,61.95
2024-02-02T12:22:00.237Z,57.96
2024-02-02T12:25:10.904Z,55.93
2024-02-02T12:28:13.743Z,49.48
2024-02-02T12:31:16.705Z,46.03
2024-02-02T12:34:19.737Z,43.17
2024-02-02T12:37:22.820Z,42.06
2024-02-02T12:40:26.379Z,39.45
2024-02-02T12:43:30.158Z,39.56
2024-02-02T12:46:46.095Z,39.22
2024-02-02T12:49:49.296Z,37.48
2024-02-02T12:52:54.987Z,35.72
2024-02-02T12:55:57.986Z,34.58
2024-02-02T12:59:01.111Z,33.79
2024-02-02T13:02:06.272Z,34.95
2024-02-02T13:05:12.389Z,35.41
2024-02-02T13:08:17.959Z,36.80
2024-02-02T13:11:21.735Z,37.91
2024-02-02T13:14:30.067Z,41.14
2024-02-02T13:17:34.253Z,47.38
2024-02-02T13:20:38.032Z,51.67
2024-02-02T13:23:40.982Z,55.97
2024-02-02T13:26:44.651Z,60.92
2024-02-02T13:29:57.990Z,64.54
2024-02-02T13:33:07.810Z,67.93
2024-02-02T13:36:12.124Z,69.64
2024-02-02T13:39:22.845Z,68.67
2024-02-02T13:42:27.602Z,69.85
2024-02-02T13:45:31.715Z,69.25
2024-02-02T13:48:45.095Z,69.98
2024-02-02T13:51:48.808Z,69.11
2024-02-02T13:54:54.813Z,68.58
2024-02-02T13:57:59.307Z,67.98
2024-02-02T14:01:12.707Z,69.38
2024-02-02T14:04:26.328Z,71.10
2024-02-02T14:07:29.375Z,71.83
2024-02-02T14:10:46.773Z,74.29
2024-02-02T14:13:50.210Z,75.51
2024-02-02T14:17:04.431Z,76.66
2024-02-02T14:20:10.749Z,77.76
2024-02-02T14:23:15.669Z,77.52
2024-02-02T14:26:18.819Z,78.24
2024-02-02T14:29:23.776Z,77.03
2024-02-02T14:32:26.433Z,78.31
2024-02-02T14:35:29.450Z,78.72
2024-02-02T14:38:32.383Z,79.28
2024-02-02T14:41:36.872Z,78.06
2024-02-02T14:44:40.714Z,77.72
2024-02-02T14:47:44.756Z,76.87
2024-02-02T14:50:49.276Z,76.14
2024-02-02T14:53:53.506Z,76.02
2024-02-02T14:57:01.409Z,77.89
2024-02-02T15:00:11.595Z,78.30
2024-02-02T15:03:14.599Z,78.60
2024-02-02T15:06:18.993Z,79.91
2024-02-02T15:09:23.765Z,81.37
2024-02-02T15:12:27.798Z,82.20
2024-02-02T15:15:32.430Z,83.44
2024-02-02T15:18:36.931Z,83.99
2024-02-02T15:21:39.852Z,83.46
2024-02-02T15:24:43.736Z,86.08
2024-02-02T15:27:46.945Z,89.13
2024-02-02T15:30:50.368Z,89.34
2024-02-02T15:33:55.840Z,92.20
2024-02-02T15:36:59.019Z,93.72
2024-02-02T15:40:02.085Z,95.17
2024-02-02T15:43:06.036Z,97.75
2024-02-02T15:46:14.035Z,99.46
2024-02-02T15:49:17.917Z,98.60
2024-02-02T15:52:20.630Z,100.00
2024-02-02T15:55:27.231Z,100.00
2024-02-02T15:58:31.311Z,100.00
2024-02-02T16:01:36.136Z,100.00
2024-02-02T16:04:41.718Z,100.00
2024-02-02T16:07:46.695Z,100.00
2024-02-02T16:10:51.044Z,100.00
2024-02-02T16:13:55.061Z,100.00
2024-02-02T16:16:59.278Z,100.00
2024-02-02T16:20:02.408Z,100.00
2024-02-02T16:23:05.731Z,100.00
2024-02-02T16:26:11.043Z,100.00
2024-02-02T16:29:17.168Z,100.00
2024-02-02T16:32:21.376Z,100.00
2024-02-02T16:35:24.981Z,100.00
2024-02-02T16:38:29.236Z,100.00
2024-02-02T16:41:33.834Z,100.00
2024-02-02T16:44:37.833Z,100.00
2024-02-02T16:47:41.693Z,100.00
2024-02-02T16:50:45.210Z,100.00
